Sacramento, California
Traffic Map
Current Weather Conditions
Sacramento, California
Clear
Clear
30°
Feels Like: 30°
Wind Chill: 30° Ceiling: Unl
Heat Index: 30° Visibility: 10mi
Dew Point: 11° Wind: 8mph
Humidity: 31% Direction: 200° (SSW)
Pressure: 29.89in Gusts: 0mph
Raw Report DataKSAC 300253Z AUTO 20007KT 10SM CLR 30/11 A2989 RMK AO2 SLP123 T03000111 55004 TSNO
Traffic Incident Summary
Active as of:
Severity:
Category:
InformationThere was an issue retrieving the traffic information for this location. Please try a different location or try again shortly.
Advertisements
Track Severe Weather on mobile